Terminal Aerodrome Forecast
Issued by NWS Quad Cities IA IL

Home | Current Version | Previous Version | Text Only | Print | Product List | Glossary On
Versions: 1 2 3 4 5 6 7 8 9 10 11 12 13 14 15 16 17 18 19 20 21 22 23 24 25 26 27 28 29 30 31 32 33 34 35 36
720
FTUS43 KDVN 032324
TAFDBQ
TAF
KDBQ 032324Z 0400/0424 16003KT P6SM BKN035 OVC100
     FM040700 13007KT 6SM -SN BR OVC020
     FM040900 14008KT 1SM -SN BR OVC005
     FM041500 15010KT 1/2SM SN FG OVC004
     FM041800 18012KT 2SM -SN BR OVC005=

USA.gov is the U.S. government's official web portal to all federal, state and local government web resources and services.